Time;durP1;ratioP1;P1;durP2;ratioP2;P2;SDS_P1;SDS_P2;PMS_P1;PMS_P2;Temp;Humidity;BMP_temperature;BMP_pressure;BME280_temperature;BME280_humidity;BME280_pressure;Samples;Min_cycle;Max_cycle;Signal;HPM_P1;HPM_P2
2023/06/13 00:01:35;;;;;;;;;;;19.30;57.50;;;;;;5051083;28;19955;-36
2023/06/13 00:04:03;;;;;;;;;;;19.10;58.00;;;;;;5053310;28;19955;-41
2023/06/13 00:06:34;;;;;;;;;;;19.10;57.50;;;;;;5047891;28;20372;-41
2023/06/13 00:09:01;;;;;;;;;;;19.00;57.40;;;;;;5049048;28;19957;-40
2023/06/13 00:11:28;;;;;;;;;;;19.00;57.50;;;;;;5050079;28;19925;-41
2023/06/13 00:13:55;;;;;;;;;;;18.90;58.00;;;;;;5043840;28;20435;-42
2023/06/13 00:16:25;;;;;;;;;;;18.90;58.00;;;;;;5051853;28;19990;-39
2023/06/13 00:18:53;;;;;;;;;;;18.80;57.80;;;;;;5036492;28;19952;-42
2023/06/13 00:21:20;;;;;;;;;;;18.80;57.80;;;;;;5053932;28;20386;-42
2023/06/13 00:23:48;;;;;;;;;;;18.70;58.40;;;;;;5039208;28;19926;-42
2023/06/13 00:26:14;;;;;;;;;;;18.70;57.70;;;;;;5047670;28;20327;-42
2023/06/13 00:28:41;;;;;;;;;;;18.70;57.90;;;;;;5043482;28;20316;-42
2023/06/13 00:31:08;;;;;;;;;;;18.60;57.70;;;;;;5037589;28;19967;-42
2023/06/13 00:33:34;;;;;;;;;;;18.60;58.60;;;;;;5053279;28;19979;-39
2023/06/13 00:36:01;;;;;;;;;;;18.60;58.10;;;;;;5053199;28;19959;-39
2023/06/13 00:38:28;;;;;;;;;;;18.60;58.20;;;;;;5045555;28;19967;-42
2023/06/13 00:40:56;;;;;;;;;;;18.50;58.70;;;;;;5043715;28;19979;-41
2023/06/13 00:43:26;;;;;;;;;;;18.50;58.40;;;;;;5033927;28;19980;-40
2023/06/13 00:45:53;;;;;;;;;;;18.50;58.40;;;;;;5034431;28;19944;-42
2023/06/13 00:48:20;;;;;;;;;;;18.50;58.40;;;;;;5052677;28;19935;-42
2023/06/13 00:50:47;;;;;;;;;;;18.40;58.10;;;;;;5051740;28;20281;-42
2023/06/13 00:53:16;;;;;;;;;;;18.40;59.00;;;;;;5051108;28;19924;-41
2023/06/13 00:55:43;;;;;;;;;;;18.40;59.30;;;;;;5050896;28;19925;-41
2023/06/13 00:58:11;;;;;;;;;;;18.40;60.20;;;;;;5038585;28;19929;-41
2023/06/13 01:00:37;;;;;;;;;;;18.30;59.50;;;;;;5051980;28;20430;-41
2023/06/13 01:03:07;;;;;;;;;;;18.30;58.90;;;;;;5051334;28;20050;-38
2023/06/13 01:05:33;;;;;;;;;;;18.20;58.80;;;;;;5051936;28;19928;-41
2023/06/13 01:08:00;;;;;;;;;;;18.20;59.20;;;;;;5051861;28;19970;-39
2023/06/13 01:10:27;;;;;;;;;;;18.20;58.80;;;;;;5045500;28;19929;-41
2023/06/13 01:12:56;;;;;;;;;;;18.10;59.40;;;;;;5052890;28;19972;-41
2023/06/13 01:15:25;;;;;;;;;;;18.10;59.00;;;;;;5033108;28;20301;-40
2023/06/13 01:17:57;;;;;;;;;;;18.10;59.50;;;;;;5042523;28;19924;-41
2023/06/13 01:20:26;;;;;;;;;;;18.00;59.50;;;;;;5043582;28;19929;-40
2023/06/13 01:22:56;;;;;;;;;;;18.00;59.20;;;;;;5032179;28;19929;-41
2023/06/13 01:25:26;;;;;;;;;;;18.00;59.50;;;;;;5048606;28;19925;-38
2023/06/13 01:27:55;;;;;;;;;;;17.90;59.50;;;;;;5042542;28;19998;-41
2023/06/13 01:30:22;;;;;;;;;;;17.90;59.70;;;;;;5051992;28;20016;-39
2023/06/13 01:32:49;;;;;;;;;;;17.90;60.90;;;;;;5050704;28;19986;-41
2023/06/13 01:35:15;;;;;;;;;;;17.80;60.70;;;;;;5038502;28;20030;-42
2023/06/13 01:37:42;;;;;;;;;;;17.80;60.60;;;;;;5035207;28;20043;-41
2023/06/13 01:40:09;;;;;;;;;;;17.80;60.30;;;;;;5049185;28;19982;-41
2023/06/13 01:42:36;;;;;;;;;;;17.70;60.20;;;;;;5043749;28;19996;-40
2023/06/13 01:45:04;;;;;;;;;;;17.70;60.30;;;;;;5048857;28;20346;-41
2023/06/13 01:47:31;;;;;;;;;;;17.60;60.00;;;;;;5048090;28;19976;-42
2023/06/13 01:50:01;;;;;;;;;;;17.70;60.30;;;;;;5039052;28;19971;-42
2023/06/13 01:52:30;;;;;;;;;;;17.60;61.20;;;;;;5050963;28;20454;-40
2023/06/13 01:54:57;;;;;;;;;;;17.60;61.30;;;;;;5050259;28;19925;-39
2023/06/13 01:57:25;;;;;;;;;;;17.60;61.50;;;;;;5047775;28;19983;-38
2023/06/13 01:59:52;;;;;;;;;;;17.50;61.00;;;;;;5032488;28;19931;-40
2023/06/13 02:02:20;;;;;;;;;;;17.50;60.80;;;;;;5047225;28;19929;-41
2023/06/13 02:04:49;;;;;;;;;;;17.50;60.50;;;;;;5060450;28;19925;-41
2023/06/13 02:07:15;;;;;;;;;;;17.50;61.00;;;;;;5047269;28;20019;-40
2023/06/13 02:09:42;;;;;;;;;;;17.40;60.90;;;;;;5051003;28;19925;-40
2023/06/13 02:12:10;;;;;;;;;;;17.40;60.90;;;;;;5066177;28;20019;-42
2023/06/13 02:14:36;;;;;;;;;;;17.30;60.90;;;;;;5065773;28;20395;-41
2023/06/13 02:17:03;;;;;;;;;;;17.30;60.90;;;;;;5043570;28;20020;-41
2023/06/13 02:19:31;;;;;;;;;;;17.30;60.60;;;;;;5055321;28;20160;-42
2023/06/13 02:21:58;;;;;;;;;;;17.20;61.00;;;;;;5043017;28;20396;-40
2023/06/13 02:24:25;;;;;;;;;;;17.20;61.00;;;;;;5066817;28;20323;-40
2023/06/13 02:26:51;;;;;;;;;;;17.20;60.80;;;;;;5066368;28;20352;-40
2023/06/13 02:29:20;;;;;;;;;;;17.20;61.10;;;;;;5050897;28;19925;-39
2023/06/13 02:31:47;;;;;;;;;;;17.10;61.00;;;;;;5051525;28;20270;-40
2023/06/13 02:34:13;;;;;;;;;;;17.10;60.90;;;;;;5051117;28;19932;-40
2023/06/13 02:36:41;;;;;;;;;;;17.10;61.70;;;;;;5050289;28;20388;-40
2023/06/13 02:39:08;;;;;;;;;;;17.10;61.20;;;;;;5044612;28;19925;-40
2023/06/13 02:41:35;;;;;;;;;;;17.00;61.20;;;;;;5051022;28;19925;-40
2023/06/13 02:44:02;;;;;;;;;;;17.00;61.30;;;;;;5066847;28;19925;-40
2023/06/13 02:46:28;;;;;;;;;;;17.00;61.30;;;;;;5050225;28;19929;-40
2023/06/13 02:48:55;;;;;;;;;;;17.00;61.00;;;;;;5051308;28;19960;-39
2023/06/13 02:51:22;;;;;;;;;;;16.90;60.90;;;;;;5051153;28;19979;-40
2023/06/13 02:53:49;;;;;;;;;;;16.90;61.00;;;;;;5038818;28;19925;-39
2023/06/13 02:56:16;;;;;;;;;;;16.90;61.50;;;;;;5053832;28;19925;-39
2023/06/13 02:58:43;;;;;;;;;;;16.90;61.00;;;;;;5044975;28;20387;-40
2023/06/13 03:01:09;;;;;;;;;;;16.90;61.20;;;;;;5040501;28;19991;-40
2023/06/13 03:03:37;;;;;;;;;;;16.80;61.10;;;;;;5039004;28;19931;-39
2023/06/13 03:06:04;;;;;;;;;;;16.80;61.30;;;;;;5047186;28;19932;-40
2023/06/13 03:08:31;;;;;;;;;;;16.80;61.40;;;;;;5053140;28;19925;-40
2023/06/13 03:10:59;;;;;;;;;;;16.80;61.50;;;;;;5036924;28;20453;-41
2023/06/13 03:13:27;;;;;;;;;;;16.70;61.40;;;;;;5027278;28;19925;-41
2023/06/13 03:16:01;;;;;;;;;;;16.70;61.50;;;;;;5054101;28;20007;-41
2023/06/13 03:18:27;;;;;;;;;;;16.70;62.10;;;;;;5052933;28;19925;-40
2023/06/13 03:20:54;;;;;;;;;;;16.70;61.90;;;;;;5054173;28;19976;-41
2023/06/13 03:23:21;;;;;;;;;;;16.60;61.70;;;;;;5053574;28;20385;-41
2023/06/13 03:25:48;;;;;;;;;;;16.60;62.40;;;;;;5054218;28;19932;-40
2023/06/13 03:28:16;;;;;;;;;;;16.60;62.30;;;;;;5017582;28;19983;-41
2023/06/13 03:30:42;;;;;;;;;;;16.50;62.10;;;;;;5039283;28;19929;-40
2023/06/13 03:33:10;;;;;;;;;;;16.50;62.20;;;;;;5053477;28;19929;-40
2023/06/13 03:35:36;;;;;;;;;;;16.50;62.80;;;;;;5032984;28;19925;-40
2023/06/13 03:38:03;;;;;;;;;;;16.50;62.10;;;;;;5034976;28;20372;-38
2023/06/13 03:40:30;;;;;;;;;;;16.50;62.80;;;;;;5049494;28;19925;-41
2023/06/13 03:42:57;;;;;;;;;;;16.40;62.70;;;;;;5044299;28;20003;-40
2023/06/13 03:45:25;;;;;;;;;;;16.40;62.40;;;;;;5052753;28;20396;-40
2023/06/13 03:47:52;;;;;;;;;;;16.40;62.50;;;;;;5045905;28;19932;-41
2023/06/13 03:50:18;;;;;;;;;;;16.40;62.60;;;;;;5047134;28;20034;-41
2023/06/13 03:52:45;;;;;;;;;;;16.40;63.10;;;;;;5053420;28;19978;-39
2023/06/13 03:55:13;;;;;;;;;;;16.30;62.90;;;;;;5048748;28;19925;-39
2023/06/13 03:57:40;;;;;;;;;;;16.30;62.90;;;;;;5032216;28;19929;-40
2023/06/13 04:00:09;;;;;;;;;;;16.30;63.00;;;;;;5044317;28;19929;-39
2023/06/13 04:02:37;;;;;;;;;;;16.30;63.00;;;;;;5050003;28;20368;-39
2023/06/13 04:05:04;;;;;;;;;;;16.30;63.20;;;;;;5054647;28;20420;-40
2023/06/13 04:07:33;;;;;;;;;;;16.30;63.40;;;;;;5047305;28;19925;-41
2023/06/13 04:10:00;;;;;;;;;;;16.30;63.60;;;;;;5068071;28;19929;-40
2023/06/13 04:12:26;;;;;;;;;;;16.20;63.70;;;;;;5066774;28;19968;-40
2023/06/13 04:14:53;;;;;;;;;;;16.30;63.40;;;;;;5050825;28;20021;-40
2023/06/13 04:17:20;;;;;;;;;;;16.20;63.50;;;;;;5069050;28;19991;-39
2023/06/13 04:19:48;;;;;;;;;;;16.30;63.90;;;;;;5066063;28;20274;-40
2023/06/13 04:22:16;;;;;;;;;;;16.20;64.10;;;;;;5049458;28;19933;-41
2023/06/13 04:24:43;;;;;;;;;;;16.20;64.50;;;;;;5052800;28;20501;-41
2023/06/13 04:27:13;;;;;;;;;;;16.20;65.30;;;;;;5051132;28;19972;-40
2023/06/13 04:29:40;;;;;;;;;;;16.20;64.60;;;;;;5052239;28;20403;-40
2023/06/13 04:32:12;;;;;;;;;;;16.20;65.10;;;;;;5042804;28;19932;-40
2023/06/13 04:34:44;;;;;;;;;;;16.20;64.30;;;;;;5043751;28;19929;-40
2023/06/13 04:37:13;;;;;;;;;;;16.20;64.70;;;;;;5051530;28;19925;-38
2023/06/13 04:39:40;;;;;;;;;;;16.20;64.70;;;;;;5041200;28;19944;-40
2023/06/13 04:42:07;;;;;;;;;;;16.20;65.00;;;;;;5067151;28;20012;-41
2023/06/13 04:44:35;;;;;;;;;;;16.20;65.40;;;;;;5052195;28;19968;-40
2023/06/13 04:47:02;;;;;;;;;;;16.30;67.90;;;;;;5052708;28;19924;-40
2023/06/13 04:49:28;;;;;;;;;;;16.20;65.60;;;;;;5051071;28;19995;-39
2023/06/13 04:51:55;;;;;;;;;;;16.30;66.50;;;;;;5053676;28;20320;-40
2023/06/13 04:54:23;;;;;;;;;;;16.30;66.10;;;;;;5050073;28;19928;-40
2023/06/13 04:56:50;;;;;;;;;;;16.30;66.50;;;;;;5061388;28;19928;-39
2023/06/13 04:59:16;;;;;;;;;;;16.30;67.40;;;;;;5051882;28;19925;-39
2023/06/13 05:01:43;;;;;;;;;;;16.40;66.10;;;;;;5039893;28;20397;-37
2023/06/13 05:04:10;;;;;;;;;;;16.40;66.10;;;;;;5036524;28;19960;-41
2023/06/13 05:06:38;;;;;;;;;;;16.40;66.40;;;;;;5038958;28;20304;-40
2023/06/13 05:09:05;;;;;;;;;;;16.50;66.20;;;;;;5033155;28;20288;-39
2023/06/13 05:11:33;;;;;;;;;;;16.50;66.50;;;;;;5049716;28;20399;-42
2023/06/13 05:14:00;;;;;;;;;;;16.60;66.40;;;;;;5047891;28;19975;-39
2023/06/13 05:16:29;;;;;;;;;;;16.70;66.70;;;;;;5050719;28;19929;-40
2023/06/13 05:18:57;;;;;;;;;;;16.70;66.40;;;;;;5034467;28;19933;-40
2023/06/13 05:21:24;;;;;;;;;;;16.80;66.20;;;;;;5043229;28;20363;-40
2023/06/13 05:23:51;;;;;;;;;;;16.90;66.90;;;;;;5049436;28;19925;-39
2023/06/13 05:26:18;;;;;;;;;;;17.00;67.60;;;;;;5050001;28;19924;-40
2023/06/13 05:28:46;;;;;;;;;;;17.10;66.20;;;;;;5047294;28;19925;-40
2023/06/13 05:31:13;;;;;;;;;;;17.20;66.50;;;;;;5040102;28;19975;-39
2023/06/13 05:33:40;;;;;;;;;;;17.30;65.90;;;;;;5050153;28;19985;-40
2023/06/13 05:36:12;;;;;;;;;;;17.40;66.40;;;;;;5052530;28;19971;-40
2023/06/13 05:38:39;;;;;;;;;;;17.50;66.10;;;;;;5050391;28;19924;-40
2023/06/13 05:41:05;;;;;;;;;;;17.60;65.90;;;;;;5050777;28;19932;-41
2023/06/13 05:43:32;;;;;;;;;;;17.80;65.50;;;;;;5043926;28;20054;-40
2023/06/13 05:46:00;;;;;;;;;;;17.80;65.80;;;;;;5042026;28;20437;-40
2023/06/13 05:48:28;;;;;;;;;;;17.90;65.80;;;;;;5048927;28;20304;-40
2023/06/13 05:50:55;;;;;;;;;;;18.00;65.30;;;;;;5014433;28;19932;-42
2023/06/13 05:53:21;;;;;;;;;;;18.10;65.40;;;;;;5044990;28;20353;-40
2023/06/13 05:55:48;;;;;;;;;;;18.20;65.00;;;;;;5049982;28;19994;-40
2023/06/13 05:58:14;;;;;;;;;;;18.40;64.80;;;;;;5039985;28;19968;-39
2023/06/13 06:00:41;;;;;;;;;;;18.50;65.10;;;;;;5031323;28;19929;-41
2023/06/13 06:03:09;;;;;;;;;;;18.60;64.80;;;;;;5043459;28;19925;-40
2023/06/13 06:05:36;;;;;;;;;;;18.70;64.50;;;;;;5043206;28;19992;-37
2023/06/13 06:08:02;;;;;;;;;;;18.90;64.60;;;;;;5044251;28;20014;-40
2023/06/13 06:10:29;;;;;;;;;;;18.90;63.30;;;;;;5042562;28;20376;-41
2023/06/13 06:12:56;;;;;;;;;;;19.00;63.20;;;;;;5061758;28;19977;-40
2023/06/13 06:15:22;;;;;;;;;;;19.10;63.20;;;;;;5037819;28;19960;-35
2023/06/13 06:17:50;;;;;;;;;;;19.30;63.20;;;;;;5041554;28;19978;-39
2023/06/13 06:20:18;;;;;;;;;;;19.40;63.70;;;;;;5042166;28;20308;-41
2023/06/13 06:22:45;;;;;;;;;;;19.50;62.80;;;;;;5045437;28;20319;-41
2023/06/13 06:25:19;;;;;;;;;;;19.60;62.80;;;;;;5064810;28;20376;-38
2023/06/13 06:27:45;;;;;;;;;;;19.70;62.40;;;;;;5063506;28;19932;-41
2023/06/13 06:30:12;;;;;;;;;;;19.80;62.40;;;;;;5052998;28;20032;-40
2023/06/13 06:32:39;;;;;;;;;;;19.90;61.80;;;;;;5061116;28;19929;-41
2023/06/13 06:35:06;;;;;;;;;;;20.00;61.80;;;;;;5035233;28;20004;-42
2023/06/13 06:37:34;;;;;;;;;;;20.10;61.40;;;;;;5046184;28;19972;-42
2023/06/13 06:40:04;;;;;;;;;;;20.20;61.40;;;;;;5058022;28;20018;-38
2023/06/13 06:42:31;;;;;;;;;;;20.40;60.90;;;;;;5063708;28;20047;-41
2023/06/13 06:44:57;;;;;;;;;;;20.40;61.10;;;;;;5051580;28;20501;-42
2023/06/13 06:47:24;;;;;;;;;;;20.50;60.70;;;;;;5060539;28;19975;-41
2023/06/13 06:49:51;;;;;;;;;;;20.60;60.30;;;;;;5067463;28;20012;-42
2023/06/13 06:52:17;;;;;;;;;;;20.70;61.20;;;;;;5044170;28;19929;-41
2023/06/13 06:54:45;;;;;;;;;;;20.90;61.00;;;;;;5038496;28;19933;-42
2023/06/13 06:57:12;;;;;;;;;;;21.20;60.80;;;;;;5048399;28;19988;-41
2023/06/13 06:59:39;;;;;;;;;;;21.30;59.80;;;;;;5038990;28;19924;-42
2023/06/13 07:02:06;;;;;;;;;;;21.40;58.90;;;;;;5050809;28;20363;-42
2023/06/13 07:04:33;;;;;;;;;;;21.40;58.90;;;;;;5045906;28;19971;-43
2023/06/13 07:06:59;;;;;;;;;;;21.50;58.40;;;;;;5051502;28;19932;-37
2023/06/13 07:09:26;;;;;;;;;;;21.60;58.40;;;;;;5053645;28;19925;-42
2023/06/13 07:11:57;;;;;;;;;;;21.70;58.50;;;;;;5054032;28;20392;-41
2023/06/13 07:14:24;;;;;;;;;;;21.80;58.80;;;;;;5053799;28;20454;-40
2023/06/13 07:16:51;;;;;;;;;;;22.00;58.20;;;;;;5053995;28;20307;-42
2023/06/13 07:19:17;;;;;;;;;;;22.20;58.70;;;;;;5053122;28;20023;-39
2023/06/13 07:21:44;;;;;;;;;;;22.40;57.60;;;;;;5053949;28;20440;-40
2023/06/13 07:24:11;;;;;;;;;;;22.50;55.70;;;;;;5052191;28;19925;-37
2023/06/13 07:26:37;;;;;;;;;;;22.60;55.60;;;;;;5036357;28;19976;-41
2023/06/13 07:29:05;;;;;;;;;;;22.70;56.80;;;;;;5053738;28;19925;-41
2023/06/13 07:31:32;;;;;;;;;;;22.80;56.00;;;;;;5054036;28;19991;-41
2023/06/13 07:33:58;;;;;;;;;;;22.90;55.60;;;;;;5051959;28;19929;-40
2023/06/13 07:36:27;;;;;;;;;;;23.00;56.10;;;;;;5053824;28;19982;-41
2023/06/13 07:38:53;;;;;;;;;;;23.20;55.00;;;;;;5054004;28;19976;-41
2023/06/13 07:41:20;;;;;;;;;;;23.30;55.10;;;;;;5038141;28;20292;-42
2023/06/13 07:43:49;;;;;;;;;;;23.50;54.90;;;;;;5033804;28;19933;-39
2023/06/13 07:46:17;;;;;;;;;;;23.60;56.00;;;;;;5031708;28;19925;-42
2023/06/13 07:48:44;;;;;;;;;;;23.80;55.50;;;;;;5033940;28;20349;-41
2023/06/13 07:51:12;;;;;;;;;;;24.00;54.50;;;;;;5044839;28;19925;-40
2023/06/13 07:53:40;;;;;;;;;;;24.10;54.60;;;;;;5035646;28;19925;-42
2023/06/13 07:56:07;;;;;;;;;;;24.20;53.60;;;;;;5035586;28;20403;-42
2023/06/13 07:58:34;;;;;;;;;;;24.30;52.70;;;;;;5065883;28;20024;-39
2023/06/13 08:01:00;;;;;;;;;;;24.40;53.80;;;;;;5042554;28;19972;-37
2023/06/13 08:03:28;;;;;;;;;;;24.50;54.00;;;;;;5033559;28;19925;-42
2023/06/13 08:05:55;;;;;;;;;;;24.70;53.40;;;;;;5033741;28;20427;-42
2023/06/13 08:08:21;;;;;;;;;;;24.80;54.10;;;;;;5033191;28;19972;-41
2023/06/13 08:10:48;;;;;;;;;;;24.90;53.90;;;;;;5048637;28;20340;-41
2023/06/13 08:13:15;;;;;;;;;;;25.20;54.10;;;;;;5033531;28;20118;-42
2023/06/13 08:15:41;;;;;;;;;;;25.30;52.10;;;;;;5048830;28;20011;-41
2023/06/13 08:18:08;;;;;;;;;;;25.40;52.00;;;;;;5063082;28;19975;-42
2023/06/13 08:20:37;;;;;;;;;;;25.50;52.90;;;;;;5065127;28;19964;-40
2023/06/13 08:23:04;;;;;;;;;;;25.60;53.40;;;;;;5064871;28;19924;-43
2023/06/13 08:25:30;;;;;;;;;;;25.80;52.80;;;;;;5033060;28;19929;-42
2023/06/13 08:27:57;;;;;;;;;;;26.00;53.30;;;;;;5033387;28;19925;-41
2023/06/13 08:30:24;;;;;;;;;;;26.10;51.40;;;;;;5048503;28;19931;-41
2023/06/13 08:32:52;;;;;;;;;;;26.20;51.90;;;;;;5039861;28;20044;-40
2023/06/13 08:35:19;;;;;;;;;;;26.20;51.10;;;;;;5052736;28;19925;-42
2023/06/13 08:37:47;;;;;;;;;;;26.30;51.40;;;;;;5068353;28;19925;-39
2023/06/13 08:40:15;;;;;;;;;;;26.30;50.50;;;;;;5062467;28;20343;-38
2023/06/13 08:42:42;;;;;;;;;;;26.40;51.80;;;;;;5051621;28;19972;-42
2023/06/13 08:45:09;;;;;;;;;;;26.60;52.60;;;;;;5043496;28;20368;-42
2023/06/13 08:47:36;;;;;;;;;;;26.90;52.70;;;;;;5051690;28;20353;-39
2023/06/13 08:50:03;;;;;;;;;;;27.00;51.60;;;;;;5051077;28;20019;-41
2023/06/13 08:52:30;;;;;;;;;;;27.30;49.80;;;;;;5041448;28;20004;-41
2023/06/13 08:54:59;;;;;;;;;;;27.30;50.70;;;;;;5045074;28;19932;-42
2023/06/13 08:57:26;;;;;;;;;;;27.30;50.50;;;;;;5049712;28;20426;-41
2023/06/13 08:59:52;;;;;;;;;;;27.40;47.70;;;;;;5050176;28;20343;-42
2023/06/13 09:02:19;;;;;;;;;;;27.30;47.90;;;;;;5048966;28;19929;-43
2023/06/13 09:04:46;;;;;;;;;;;27.30;47.00;;;;;;5051506;28;19925;-41
2023/06/13 09:07:13;;;;;;;;;;;27.30;47.80;;;;;;5050037;28;20023;-40
2023/06/13 09:09:40;;;;;;;;;;;27.40;48.50;;;;;;5050030;28;19924;-39
2023/06/13 09:12:08;;;;;;;;;;;27.60;46.30;;;;;;5049285;28;19924;-41
2023/06/13 09:14:35;;;;;;;;;;;27.70;49.40;;;;;;5050970;28;19924;-41
2023/06/13 09:17:01;;;;;;;;;;;27.90;46.20;;;;;;5051169;28;20008;-40
2023/06/13 09:19:28;;;;;;;;;;;28.00;46.30;;;;;;5049520;28;19987;-41
2023/06/13 09:21:55;;;;;;;;;;;28.10;47.60;;;;;;5049007;28;20007;-41
2023/06/13 09:24:21;;;;;;;;;;;28.20;48.20;;;;;;5035989;28;19979;-42
2023/06/13 09:26:48;;;;;;;;;;;28.30;45.30;;;;;;5046311;28;19933;-41
2023/06/13 09:29:17;;;;;;;;;;;28.40;44.30;;;;;;5045859;28;20415;-42
2023/06/13 09:31:43;;;;;;;;;;;28.40;46.70;;;;;;5051288;28;19925;-40
2023/06/13 09:34:14;;;;;;;;;;;28.50;47.50;;;;;;5051662;28;19968;-42
2023/06/13 09:36:41;;;;;;;;;;;28.60;47.40;;;;;;5034018;28;19924;-41
2023/06/13 09:39:08;;;;;;;;;;;28.70;44.40;;;;;;5050192;28;19932;-40
2023/06/13 09:41:35;;;;;;;;;;;28.70;47.10;;;;;;5050667;28;19979;-42
2023/06/13 09:44:02;;;;;;;;;;;28.90;47.30;;;;;;5040545;28;20015;-41
2023/06/13 09:46:30;;;;;;;;;;;29.00;46.30;;;;;;5031550;28;19925;-42
2023/06/13 09:48:57;;;;;;;;;;;29.20;46.30;;;;;;5022909;28;19925;-40
2023/06/13 09:51:24;;;;;;;;;;;29.20;45.20;;;;;;5049397;28;19932;-40
2023/06/13 09:53:51;;;;;;;;;;;29.10;44.60;;;;;;5046566;28;20027;-41
2023/06/13 09:56:17;;;;;;;;;;;29.10;45.40;;;;;;5034513;28;19929;-41
2023/06/13 09:58:44;;;;;;;;;;;29.20;43.10;;;;;;5062771;28;19975;-43
2023/06/13 10:01:14;;;;;;;;;;;29.20;45.00;;;;;;5050096;28;19978;-40
2023/06/13 10:03:43;;;;;;;;;;;29.30;44.20;;;;;;5039560;28;20337;-41
2023/06/13 10:06:10;;;;;;;;;;;29.30;44.60;;;;;;5065852;28;19924;-42
2023/06/13 10:08:37;;;;;;;;;;;29.50;44.30;;;;;;5049020;28;19925;-42
2023/06/13 10:11:08;;;;;;;;;;;29.50;43.40;;;;;;5063331;28;19968;-42
2023/06/13 10:13:37;;;;;;;;;;;29.50;45.30;;;;;;5048945;28;20308;-40
2023/06/13 10:16:03;;;;;;;;;;;29.60;44.40;;;;;;5044927;28;19980;-43
2023/06/13 10:18:31;;;;;;;;;;;29.60;42.70;;;;;;5053765;28;19929;-41
2023/06/13 10:20:59;;;;;;;;;;;29.60;44.10;;;;;;5048917;28;19975;-41
2023/06/13 10:23:28;;;;;;;;;;;29.70;44.10;;;;;;5045820;28;19929;-42
2023/06/13 10:25:55;;;;;;;;;;;29.80;44.90;;;;;;5050948;28;19925;-43
2023/06/13 10:28:25;;;;;;;;;;;30.00;45.20;;;;;;5048489;28;19966;-40
2023/06/13 10:30:55;;;;;;;;;;;30.20;44.80;;;;;;5030941;28;19931;-42
2023/06/13 10:33:44;;;;;;;;;;;30.30;43.90;;;;;;5029716;28;20015;-42
2023/06/13 10:36:16;;;;;;;;;;;30.30;44.20;;;;;;5035044;28;19978;-40
2023/06/13 10:38:53;;;;;;;;;;;30.30;43.20;;;;;;5064849;28;19925;-41
2023/06/13 10:41:35;;;;;;;;;;;30.30;42.60;;;;;;5065522;28;19929;-43
2023/06/13 10:44:02;;;;;;;;;;;30.40;44.30;;;;;;5050612;28;19925;-42
2023/06/13 10:46:29;;;;;;;;;;;30.50;43.10;;;;;;5049528;28;19983;-43
2023/06/13 10:48:56;;;;;;;;;;;30.60;43.30;;;;;;5066671;28;19924;-40
2023/06/13 10:51:25;;;;;;;;;;;30.60;40.80;;;;;;5050706;28;19924;-41
2023/06/13 10:53:57;;;;;;;;;;;30.60;42.80;;;;;;5049762;28;19925;-42
2023/06/13 10:56:24;;;;;;;;;;;30.70;44.00;;;;;;5050745;28;19979;-38
2023/06/13 10:58:50;;;;;;;;;;;30.80;42.90;;;;;;5050309;28;19924;-41
2023/06/13 11:01:35;;;;;;;;;;;31.00;43.60;;;;;;5049586;28;19976;-42
2023/06/13 11:04:08;;;;;;;;;;;31.20;44.00;;;;;;5049773;28;19964;-41
2023/06/13 11:06:36;;;;;;;;;;;31.30;42.80;;;;;;5032812;28;19976;-41
2023/06/13 11:09:17;;;;;;;;;;;31.20;42.20;;;;;;5036548;28;19925;-42
2023/06/13 11:11:45;;;;;;;;;;;31.20;42.60;;;;;;5028921;28;19925;-42
2023/06/13 11:14:12;;;;;;;;;;;31.30;43.20;;;;;;5038207;28;19956;-40
2023/06/13 11:16:39;;;;;;;;;;;31.50;43.30;;;;;;5049597;28;20281;-41
2023/06/13 11:19:05;;;;;;;;;;;31.50;43.00;;;;;;5050279;28;19925;-41
2023/06/13 11:21:32;;;;;;;;;;;31.50;41.50;;;;;;5052560;28;20332;-41
2023/06/13 11:24:00;;;;;;;;;;;31.60;42.20;;;;;;5031716;28;20392;-41
2023/06/13 11:26:27;;;;;;;;;;;31.70;42.60;;;;;;5051270;28;20392;-42
2023/06/13 11:28:54;;;;;;;;;;;31.70;42.70;;;;;;5036499;28;19932;-43
2023/06/13 11:31:20;;;;;;;;;;;31.80;43.40;;;;;;5053615;28;19975;-42
2023/06/13 11:33:47;;;;;;;;;;;32.00;43.70;;;;;;5052095;28;19960;-40
2023/06/13 11:36:14;;;;;;;;;;;32.10;43.60;;;;;;5053982;28;19924;-42
2023/06/13 11:38:41;;;;;;;;;;;32.30;43.30;;;;;;5052631;28;19928;-42
2023/06/13 11:41:09;;;;;;;;;;;32.40;42.10;;;;;;5035777;28;19929;-41
2023/06/13 11:43:36;;;;;;;;;;;32.30;41.50;;;;;;5052668;28;19925;-42
2023/06/13 11:46:03;;;;;;;;;;;32.40;40.80;;;;;;5051110;28;19999;-42
2023/06/13 11:48:30;;;;;;;;;;;32.40;42.80;;;;;;5052138;28;20586;-40
2023/06/13 11:51:08;;;;;;;;;;;32.40;40.90;;;;;;5053351;28;20286;-43
2023/06/13 11:53:45;;;;;;;;;;;32.30;41.50;;;;;;5051899;28;19929;-42
2023/06/13 11:56:15;;;;;;;;;;;32.20;40.60;;;;;;5052416;28;20348;-40
2023/06/13 11:58:41;;;;;;;;;;;32.20;42.30;;;;;;5066399;28;19932;-43
2023/06/13 12:01:08;;;;;;;;;;;32.20;41.50;;;;;;5053188;28;19929;-42
2023/06/13 12:03:37;;;;;;;;;;;32.20;41.20;;;;;;5051997;28;19931;-41
2023/06/13 12:06:06;;;;;;;;;;;32.30;43.20;;;;;;5068523;28;19955;-40
2023/06/13 12:08:34;;;;;;;;;;;32.50;41.40;;;;;;5051746;28;19982;-42
2023/06/13 12:11:02;;;;;;;;;;;32.60;41.80;;;;;;5053120;28;20442;-40
2023/06/13 12:13:30;;;;;;;;;;;32.60;41.10;;;;;;5052460;28;20335;-42
2023/06/13 12:15:57;;;;;;;;;;;32.60;41.10;;;;;;5068420;28;20377;-42
2023/06/13 12:18:24;;;;;;;;;;;32.70;41.60;;;;;;5052592;28;20331;-42
2023/06/13 12:20:51;;;;;;;;;;;32.80;40.60;;;;;;5052478;28;19975;-42
2023/06/13 12:23:19;;;;;;;;;;;32.70;40.40;;;;;;5067431;28;19979;-43
2023/06/13 12:25:46;;;;;;;;;;;32.60;39.90;;;;;;5068593;28;19925;-43
2023/06/13 12:28:15;;;;;;;;;;;32.60;41.60;;;;;;5068430;28;20023;-40
2023/06/13 12:30:43;;;;;;;;;;;32.70;42.00;;;;;;5052686;28;19925;-42
2023/06/13 12:33:13;;;;;;;;;;;32.70;42.20;;;;;;5044173;28;19964;-42
2023/06/13 12:35:48;;;;;;;;;;;32.80;42.20;;;;;;5053510;28;19940;-42
2023/06/13 12:38:15;;;;;;;;;;;32.70;40.50;;;;;;5069149;28;19975;-41
2023/06/13 12:40:41;;;;;;;;;;;32.70;41.40;;;;;;5045984;28;19929;-42
2023/06/13 12:43:08;;;;;;;;;;;32.70;41.80;;;;;;5033782;28;20037;-43
2023/06/13 12:45:34;;;;;;;;;;;32.70;40.90;;;;;;5048725;28;20011;-42
2023/06/13 12:48:02;;;;;;;;;;;32.70;41.50;;;;;;5038701;28;19971;-42
2023/06/13 12:50:36;;;;;;;;;;;32.70;41.70;;;;;;5037193;28;19925;-43
2023/06/13 12:53:03;;;;;;;;;;;32.70;41.80;;;;;;5052551;28;20376;-43
2023/06/13 12:55:29;;;;;;;;;;;32.80;41.60;;;;;;5049292;28;20304;-42
2023/06/13 12:57:57;;;;;;;;;;;32.70;40.90;;;;;;5067812;28;19925;-44
2023/06/13 13:00:24;;;;;;;;;;;32.70;40.90;;;;;;5052291;28;20295;-42
2023/06/13 13:02:51;;;;;;;;;;;32.80;41.30;;;;;;5053043;28;19974;-42
2023/06/13 13:05:19;;;;;;;;;;;32.90;40.10;;;;;;5068501;28;19929;-42
2023/06/13 13:07:46;;;;;;;;;;;32.80;40.50;;;;;;5051983;28;19925;-43
2023/06/13 13:10:13;;;;;;;;;;;32.90;40.50;;;;;;5068816;28;20372;-41
2023/06/13 13:12:41;;;;;;;;;;;33.10;41.20;;;;;;5052152;28;19924;-43
2023/06/13 13:15:08;;;;;;;;;;;33.30;41.60;;;;;;5051993;28;20455;-43
2023/06/13 13:17:35;;;;;;;;;;;33.30;41.90;;;;;;5052647;28;19925;-42
2023/06/13 13:20:04;;;;;;;;;;;33.30;39.80;;;;;;5053010;28;19928;-44
2023/06/13 13:22:32;;;;;;;;;;;33.20;42.10;;;;;;5037179;28;20284;-42
2023/06/13 13:24:58;;;;;;;;;;;33.30;42.30;;;;;;5029080;28;20364;-41
2023/06/13 13:27:25;;;;;;;;;;;33.40;42.00;;;;;;5030305;28;19968;-42
2023/06/13 13:29:52;;;;;;;;;;;33.30;41.20;;;;;;5032524;28;19925;-42
2023/06/13 13:32:19;;;;;;;;;;;33.30;42.70;;;;;;5031337;28;19929;-42
2023/06/13 13:34:45;;;;;;;;;;;33.40;43.30;;;;;;5031949;28;19983;-43
2023/06/13 13:37:12;;;;;;;;;;;33.50;42.20;;;;;;5032506;28;20016;-42
2023/06/13 13:39:40;;;;;;;;;;;33.50;42.10;;;;;;5035938;28;19925;-43
2023/06/13 13:42:07;;;;;;;;;;;33.30;40.90;;;;;;5042020;28;19948;-40
2023/06/13 13:44:33;;;;;;;;;;;33.10;42.40;;;;;;5066633;28;19947;-43
2023/06/13 13:47:00;;;;;;;;;;;33.00;42.80;;;;;;5045059;28;19991;-42
2023/06/13 13:49:28;;;;;;;;;;;33.00;41.60;;;;;;5067713;28;19960;-43
2023/06/13 13:51:54;;;;;;;;;;;32.90;40.70;;;;;;5051319;28;19936;-43
2023/06/13 13:54:21;;;;;;;;;;;32.90;42.20;;;;;;5050646;28;19925;-42
2023/06/13 13:56:49;;;;;;;;;;;32.90;42.70;;;;;;5067480;28;19986;-42
2023/06/13 13:59:15;;;;;;;;;;;33.00;41.60;;;;;;5034726;28;20455;-43
2023/06/13 14:01:42;;;;;;;;;;;33.20;42.60;;;;;;5037582;28;20438;-42
2023/06/13 14:04:09;;;;;;;;;;;33.20;41.40;;;;;;5051493;28;19932;-43
2023/06/13 14:06:35;;;;;;;;;;;33.20;41.50;;;;;;5051333;28;19987;-41
2023/06/13 14:09:02;;;;;;;;;;;33.00;41.50;;;;;;5042772;28;19976;-43
2023/06/13 14:11:29;;;;;;;;;;;33.00;41.30;;;;;;5032238;28;19979;-43
2023/06/13 14:13:57;;;;;;;;;;;33.10;41.80;;;;;;5036383;28;19971;-43
2023/06/13 14:16:24;;;;;;;;;;;33.20;41.70;;;;;;5032884;28;20381;-42
2023/06/13 14:18:51;;;;;;;;;;;33.20;41.90;;;;;;5032197;28;19964;-43